createdAt,value
2023-03-07T00:01:08.702Z,32.90
2023-03-07T00:03:37.060Z,33.90
2023-03-07T00:06:10.459Z,34.47
2023-03-07T00:08:37.793Z,35.00
2023-03-07T00:11:07.306Z,34.60
2023-03-07T00:13:35.850Z,33.97
2023-03-07T00:16:05.007Z,31.90
2023-03-07T00:18:32.421Z,32.53
2023-03-07T00:21:01.327Z,30.33
2023-03-07T00:23:28.462Z,31.13
2023-03-07T00:26:04.235Z,32.53
2023-03-07T00:28:31.783Z,29.23
2023-03-07T00:31:03.704Z,28.13
2023-03-07T00:33:31.124Z,27.30
2023-03-07T00:36:18.954Z,27.83
2023-03-07T00:38:46.942Z,29.67
2023-03-07T00:41:26.044Z,29.80
2023-03-07T00:43:54.055Z,28.30
2023-03-07T00:46:23.127Z,30.73
2023-03-07T00:48:50.132Z,29.63
2023-03-07T00:51:18.446Z,29.70
2023-03-07T00:53:45.464Z,33.13
2023-03-07T00:56:16.745Z,32.20
2023-03-07T00:58:44.238Z,31.33
2023-03-07T01:01:13.647Z,32.53
2023-03-07T01:03:40.658Z,30.60
2023-03-07T01:06:15.036Z,28.73
2023-03-07T01:08:42.241Z,30.90
2023-03-07T01:11:10.809Z,32.40
2023-03-07T01:13:37.786Z,32.77
2023-03-07T01:16:23.336Z,33.47
2023-03-07T01:18:56.224Z,34.23
2023-03-07T01:21:24.606Z,34.00
2023-03-07T01:23:52.544Z,35.60
2023-03-07T01:26:25.798Z,36.80
2023-03-07T01:28:55.174Z,36.13
2023-03-07T01:31:22.480Z,39.43
2023-03-07T01:33:51.510Z,48.07
2023-03-07T01:36:25.583Z,44.57
2023-03-07T01:38:55.822Z,42.80
2023-03-07T01:41:22.991Z,43.53
2023-03-07T01:43:50.261Z,41.93
2023-03-07T01:46:34.622Z,39.50
2023-03-07T01:49:07.704Z,40.60
2023-03-07T01:51:36.679Z,41.33
2023-03-07T01:54:06.592Z,43.00
2023-03-07T01:56:36.676Z,37.33
2023-03-07T01:59:04.540Z,36.23
2023-03-07T02:01:32.399Z,40.70
2023-03-07T02:04:32.387Z,44.10
2023-03-07T02:07:01.511Z,47.03
2023-03-07T02:09:31.143Z,42.13
2023-03-07T02:12:00.735Z,37.23
2023-03-07T02:14:27.788Z,38.10
2023-03-07T02:16:54.870Z,35.47
2023-03-07T02:19:50.938Z,34.93
2023-03-07T02:22:19.180Z,34.77
2023-03-07T02:24:56.745Z,38.53
2023-03-07T02:27:25.849Z,36.33
2023-03-07T02:29:53.193Z,39.07
2023-03-07T02:32:20.668Z,40.57
2023-03-07T02:34:47.525Z,39.90
2023-03-07T02:37:23.943Z,37.73
2023-03-07T02:39:51.387Z,39.50
2023-03-07T02:42:23.529Z,37.87
2023-03-07T02:44:59.976Z,40.47
2023-03-07T02:47:27.291Z,37.60
2023-03-07T02:49:54.559Z,40.63
2023-03-07T02:52:22.385Z,42.17
2023-03-07T02:54:49.352Z,39.20
2023-03-07T02:57:16.693Z,38.80
2023-03-07T02:59:43.638Z,38.00
2023-03-07T03:02:10.996Z,37.40
2023-03-07T03:04:38.058Z,36.77
2023-03-07T03:07:05.499Z,41.97
2023-03-07T03:09:32.801Z,38.37
2023-03-07T03:11:59.874Z,39.07
2023-03-07T03:14:26.865Z,38.27
2023-03-07T03:16:54.510Z,37.80
2023-03-07T03:19:21.879Z,38.90
2023-03-07T03:21:48.982Z,38.40
2023-03-07T03:24:15.965Z,39.50
2023-03-07T03:26:42.891Z,38.97
2023-03-07T03:29:10.252Z,34.77
2023-03-07T03:31:37.452Z,32.43
2023-03-07T03:34:05.752Z,34.33
2023-03-07T03:36:32.921Z,34.07
2023-03-07T03:39:00.512Z,34.83
2023-03-07T03:41:27.462Z,35.17
2023-03-07T03:43:54.324Z,35.03
2023-03-07T03:46:21.390Z,34.37
2023-03-07T03:48:53.600Z,38.20
2023-03-07T03:51:21.658Z,36.23
2023-03-07T03:53:48.649Z,36.83
2023-03-07T03:56:18.276Z,36.23
2023-03-07T03:58:48.268Z,37.63
2023-03-07T04:01:15.348Z,41.70
2023-03-07T04:03:45.545Z,49.37
2023-03-07T04:06:16.166Z,43.87
2023-03-07T04:08:43.348Z,41.70
2023-03-07T04:11:10.531Z,66.90
2023-03-07T04:13:37.653Z,56.13
2023-03-07T04:16:05.313Z,78.40
2023-03-07T04:18:32.394Z,51.70
2023-03-07T04:20:59.485Z,39.27
2023-03-07T04:23:27.732Z,47.57
2023-03-07T04:25:59.758Z,42.53
2023-03-07T04:29:01.820Z,54.83
2023-03-07T04:31:29.228Z,48.93
2023-03-07T04:33:57.549Z,47.03
2023-03-07T04:36:25.435Z,48.93
2023-03-07T04:38:52.340Z,46.10
2023-03-07T04:41:26.233Z,41.80
2023-03-07T04:43:53.353Z,36.43
2023-03-07T04:46:20.899Z,32.97
2023-03-07T04:48:48.031Z,35.07
2023-03-07T04:51:15.353Z,30.47
2023-03-07T04:53:42.314Z,31.20
2023-03-07T04:56:10.530Z,29.87
2023-03-07T04:58:37.892Z,30.97
2023-03-07T05:01:05.994Z,34.37
2023-03-07T05:03:33.157Z,34.97
2023-03-07T05:06:06.011Z,35.57
2023-03-07T05:08:33.343Z,36.87
2023-03-07T05:11:00.216Z,41.10
2023-03-07T05:13:27.177Z,42.67
2023-03-07T05:15:56.698Z,40.00
2023-03-07T05:18:24.068Z,37.37
2023-03-07T05:20:51.700Z,38.63
2023-03-07T05:23:19.739Z,36.83
2023-03-07T05:25:50.149Z,37.70
2023-03-07T05:28:17.862Z,34.47
2023-03-07T05:30:46.499Z,31.03
2023-03-07T05:33:13.998Z,29.23
2023-03-07T05:35:41.129Z,27.40
2023-03-07T05:38:08.497Z,25.17
2023-03-07T05:40:35.670Z,28.40
2023-03-07T05:43:02.835Z,26.83
2023-03-07T05:45:29.989Z,27.60
2023-03-07T05:47:57.305Z,35.20
2023-03-07T05:50:24.448Z,28.17
2023-03-07T05:52:53.164Z,30.53
2023-03-07T05:55:20.339Z,29.90
2023-03-07T05:57:47.570Z,30.00
2023-03-07T06:00:16.188Z,27.67
2023-03-07T06:02:43.299Z,26.63
2023-03-07T06:05:10.485Z,26.40
2023-03-07T06:07:37.510Z,27.57
2023-03-07T06:10:04.998Z,26.03
2023-03-07T06:12:31.833Z,23.73
2023-03-07T06:14:58.862Z,24.30
2023-03-07T06:17:25.925Z,25.93
2023-03-07T06:19:52.832Z,24.77
2023-03-07T06:22:19.785Z,26.07
2023-03-07T06:24:46.871Z,29.40
2023-03-07T06:27:13.922Z,30.07
2023-03-07T06:29:40.898Z,28.23
2023-03-07T06:32:07.918Z,29.47
2023-03-07T06:34:34.918Z,29.17
2023-03-07T06:37:01.825Z,26.37
2023-03-07T06:39:31.211Z,27.53
2023-03-07T06:41:58.233Z,26.30
2023-03-07T06:44:25.120Z,25.97
2023-03-07T06:46:52.177Z,25.10
2023-03-07T06:49:19.029Z,23.63
2023-03-07T06:51:45.966Z,23.13
2023-03-07T06:54:12.836Z,24.43
2023-03-07T06:56:39.983Z,22.43
2023-03-07T06:59:06.852Z,22.80
2023-03-07T07:01:35.728Z,21.33
2023-03-07T07:04:02.873Z,24.03
2023-03-07T07:06:29.836Z,21.57
2023-03-07T07:08:58.697Z,22.17
2023-03-07T07:11:26.555Z,21.53
2023-03-07T07:13:53.680Z,20.57
2023-03-07T07:16:20.674Z,19.63
2023-03-07T07:18:47.956Z,19.43
2023-03-07T07:21:14.802Z,22.73
2023-03-07T07:23:41.885Z,22.67
2023-03-07T07:26:09.118Z,20.93
2023-03-07T07:28:36.403Z,18.83
2023-03-07T07:31:04.179Z,21.07
2023-03-07T07:33:31.839Z,21.97
2023-03-07T07:35:58.801Z,21.60
2023-03-07T07:38:25.682Z,19.73
2023-03-07T07:40:52.623Z,17.30
2023-03-07T07:43:19.500Z,18.67
2023-03-07T07:45:46.363Z,18.50
2023-03-07T07:48:13.258Z,17.43
2023-03-07T07:50:40.652Z,16.90
2023-03-07T07:53:07.680Z,17.37
2023-03-07T07:55:34.565Z,16.40
2023-03-07T07:58:01.383Z,16.73
2023-03-07T08:00:28.689Z,18.00
2023-03-07T08:02:55.740Z,16.30
2023-03-07T08:05:23.011Z,15.93
2023-03-07T08:07:50.565Z,18.30
2023-03-07T08:10:18.179Z,14.40
2023-03-07T08:12:47.915Z,15.63
2023-03-07T08:15:17.135Z,17.05
2023-03-07T08:17:44.571Z,15.15
2023-03-07T08:20:11.816Z,14.90
2023-03-07T08:22:39.135Z,15.38
2023-03-07T08:25:07.517Z,14.68
2023-03-07T08:27:34.688Z,12.88
2023-03-07T08:30:01.722Z,14.25
2023-03-07T08:32:28.719Z,13.68
2023-03-07T08:34:55.633Z,13.27
2023-03-07T08:37:22.602Z,12.68
2023-03-07T08:39:49.496Z,13.48
2023-03-07T08:42:16.476Z,11.70
2023-03-07T08:44:43.443Z,12.88
2023-03-07T08:47:12.236Z,14.02
2023-03-07T08:49:40.134Z,12.30
2023-03-07T08:52:07.184Z,12.25
2023-03-07T08:54:34.146Z,13.40
2023-03-07T08:57:01.038Z,13.15
2023-03-07T08:59:28.030Z,12.43
2023-03-07T09:01:56.989Z,12.65
2023-03-07T09:04:24.465Z,12.13
2023-03-07T09:06:51.980Z,12.70
2023-03-07T09:09:18.956Z,12.27
2023-03-07T09:11:45.749Z,12.48
2023-03-07T09:14:12.568Z,13.02
2023-03-07T09:16:39.539Z,13.00
2023-03-07T09:19:06.604Z,11.45
2023-03-07T09:21:33.458Z,12.57
2023-03-07T09:24:00.328Z,11.95
2023-03-07T09:26:27.398Z,11.90
2023-03-07T09:28:54.366Z,12.20
2023-03-07T09:31:21.596Z,12.48
2023-03-07T09:33:48.910Z,12.20
2023-03-07T09:36:18.089Z,11.77
2023-03-07T09:38:45.680Z,12.07
2023-03-07T09:41:21.499Z,11.98
2023-03-07T09:44:01.190Z,11.53
2023-03-07T09:46:46.998Z,12.43
2023-03-07T09:49:18.231Z,11.40
2023-03-07T09:51:50.404Z,10.73
2023-03-07T09:54:53.297Z,11.80
2023-03-07T09:57:26.398Z,10.73
2023-03-07T09:59:58.519Z,11.00
2023-03-07T10:02:39.254Z,11.23
2023-03-07T10:05:08.811Z,11.63
2023-03-07T10:07:36.218Z,11.05
2023-03-07T10:10:11.064Z,10.95
2023-03-07T10:13:02.541Z,11.52
2023-03-07T10:15:54.156Z,11.07
2023-03-07T10:18:39.302Z,10.80
2023-03-07T10:21:32.970Z,10.95
2023-03-07T10:24:06.210Z,11.55
2023-03-07T10:26:35.285Z,10.93
2023-03-07T10:29:21.989Z,10.52
2023-03-07T10:31:55.357Z,11.03
2023-03-07T10:34:28.771Z,10.57
2023-03-07T10:37:09.510Z,10.87
2023-03-07T10:39:44.781Z,9.47
2023-03-07T10:42:13.789Z,10.30
2023-03-07T10:44:41.984Z,10.00
2023-03-07T10:47:14.932Z,10.97
2023-03-07T10:49:46.062Z,10.83
2023-03-07T10:52:35.262Z,10.37
2023-03-07T10:55:33.050Z,10.27
2023-03-07T10:58:32.477Z,10.13
2023-03-07T11:01:08.518Z,9.97
2023-03-07T11:03:55.890Z,10.23
2023-03-07T11:06:41.544Z,9.57
2023-03-07T11:09:17.025Z,9.40
2023-03-07T11:12:11.439Z,9.23
2023-03-07T11:14:50.380Z,9.50
2023-03-07T11:17:39.093Z,9.77
2023-03-07T11:20:21.762Z,9.60
2023-03-07T11:22:48.767Z,8.50
2023-03-07T11:25:25.902Z,9.43
2023-03-07T11:27:55.711Z,9.73
2023-03-07T11:30:25.683Z,9.23
2023-03-07T11:32:54.096Z,9.33
2023-03-07T11:35:24.916Z,8.90
2023-03-07T11:38:14.073Z,9.30
2023-03-07T11:40:50.853Z,9.00
2023-03-07T11:43:44.257Z,8.67
2023-03-07T11:46:17.070Z,9.77
2023-03-07T11:49:01.626Z,8.80
2023-03-07T11:52:12.859Z,9.90
2023-03-07T11:54:42.432Z,9.93
2023-03-07T11:57:38.198Z,8.73
2023-03-07T12:00:38.378Z,9.63
2023-03-07T12:03:08.101Z,9.40
2023-03-07T12:05:58.249Z,9.13
2023-03-07T12:08:36.332Z,8.20
2023-03-07T12:11:38.437Z,9.53
2023-03-07T12:14:08.311Z,9.10
2023-03-07T12:17:01.888Z,9.10
2023-03-07T12:19:59.139Z,8.70
2023-03-07T12:22:35.583Z,8.23
2023-03-07T12:25:08.581Z,9.00
2023-03-07T12:28:07.060Z,8.90
2023-03-07T12:31:05.953Z,8.60
2023-03-07T12:33:51.801Z,9.00
2023-03-07T12:36:44.640Z,8.53
2023-03-07T12:39:37.262Z,10.00
2023-03-07T12:42:28.168Z,9.17
2023-03-07T12:45:08.659Z,10.10
2023-03-07T12:47:54.208Z,11.60
2023-03-07T12:50:33.619Z,9.80
2023-03-07T12:53:05.592Z,9.30
2023-03-07T12:55:38.780Z,9.47
2023-03-07T12:58:13.474Z,9.43
2023-03-07T13:00:45.371Z,9.43
2023-03-07T13:03:21.225Z,10.63
2023-03-07T13:05:48.597Z,11.07
2023-03-07T13:08:23.536Z,9.93
2023-03-07T13:10:51.236Z,10.37
2023-03-07T13:13:43.449Z,10.87
2023-03-07T13:16:40.542Z,10.17
2023-03-07T13:19:29.319Z,10.17
2023-03-07T13:21:56.397Z,9.50
2023-03-07T13:24:44.773Z,8.60
2023-03-07T13:27:27.343Z,8.17
2023-03-07T13:30:12.858Z,7.37
2023-03-07T13:32:51.960Z,7.50
2023-03-07T13:35:31.287Z,7.17
2023-03-07T13:38:32.526Z,8.70
2023-03-07T13:41:04.577Z,8.23
2023-03-07T13:43:35.645Z,8.53
2023-03-07T13:46:36.426Z,8.30
2023-03-07T13:49:03.984Z,7.90
2023-03-07T13:51:31.026Z,7.27
2023-03-07T13:54:04.575Z,8.03
2023-03-07T13:56:37.194Z,8.00
2023-03-07T13:59:10.231Z,7.20
2023-03-07T14:01:44.134Z,7.07
2023-03-07T14:04:43.197Z,7.47
2023-03-07T14:07:31.972Z,7.53
2023-03-07T14:10:23.537Z,7.17
2023-03-07T14:13:01.237Z,7.40
2023-03-07T14:15:33.982Z,7.40
2023-03-07T14:18:04.257Z,7.53
2023-03-07T14:21:06.994Z,8.37
2023-03-07T14:24:11.515Z,8.37
2023-03-07T14:26:44.992Z,9.63
2023-03-07T14:29:26.164Z,10.60
2023-03-07T14:31:56.965Z,9.40
2023-03-07T14:34:36.275Z,9.30
2023-03-07T14:37:07.941Z,9.10
2023-03-07T14:39:59.977Z,9.00
2023-03-07T14:42:44.899Z,8.47
2023-03-07T14:45:32.557Z,7.83
2023-03-07T14:48:11.353Z,8.70
2023-03-07T14:50:44.329Z,8.43
2023-03-07T14:53:43.448Z,8.70
2023-03-07T14:56:11.122Z,8.77
2023-03-07T14:58:49.490Z,8.83
2023-03-07T15:01:19.757Z,9.27
2023-03-07T15:03:54.398Z,8.20
2023-03-07T15:06:25.026Z,8.17
2023-03-07T15:08:55.355Z,8.83
2023-03-07T15:12:03.785Z,27.03
2023-03-07T15:14:44.758Z,27.73
2023-03-07T15:17:19.174Z,10.67
2023-03-07T15:19:51.629Z,11.50
2023-03-07T15:22:25.474Z,12.33
2023-03-07T15:24:53.078Z,12.40
2023-03-07T15:27:31.843Z,11.03
2023-03-07T15:30:00.991Z,10.97
2023-03-07T15:32:31.064Z,10.83
2023-03-07T15:35:03.898Z,9.93
2023-03-07T15:37:35.070Z,11.23
2023-03-07T15:40:10.597Z,11.90
2023-03-07T15:43:15.524Z,11.63
2023-03-07T15:45:45.711Z,9.73
2023-03-07T15:48:12.973Z,10.53
2023-03-07T15:50:40.400Z,11.23
2023-03-07T15:53:10.614Z,12.73
2023-03-07T15:55:39.345Z,10.53
2023-03-07T15:58:14.106Z,14.37
2023-03-07T16:00:42.274Z,13.67
2023-03-07T16:03:29.983Z,11.60
2023-03-07T16:05:59.613Z,12.97
2023-03-07T16:08:27.750Z,18.10
2023-03-07T16:11:06.858Z,16.20
2023-03-07T16:13:42.747Z,12.70
2023-03-07T16:16:12.737Z,11.70
2023-03-07T16:18:40.831Z,22.93
2023-03-07T16:21:13.913Z,13.70
2023-03-07T16:23:41.381Z,9.23
2023-03-07T16:26:12.236Z,9.03
2023-03-07T16:28:39.978Z,13.57
2023-03-07T16:31:16.163Z,10.90
2023-03-07T16:33:43.988Z,10.93
2023-03-07T16:36:11.818Z,9.47
2023-03-07T16:38:39.071Z,10.10
2023-03-07T16:41:19.761Z,13.17
2023-03-07T16:43:47.414Z,11.80
2023-03-07T16:46:18.924Z,9.40
2023-03-07T16:48:46.684Z,8.50
2023-03-07T16:51:19.422Z,11.80
2023-03-07T16:53:46.977Z,9.67
2023-03-07T16:56:28.104Z,8.07
2023-03-07T16:58:55.519Z,10.17
2023-03-07T17:01:22.787Z,12.87
2023-03-07T17:03:50.162Z,15.67
2023-03-07T17:06:18.272Z,13.20
2023-03-07T17:08:45.947Z,13.17
2023-03-07T17:11:19.945Z,14.40
2023-03-07T17:13:49.333Z,11.20
2023-03-07T17:16:17.033Z,12.83
2023-03-07T17:18:44.393Z,12.30
2023-03-07T17:21:14.451Z,13.13
2023-03-07T17:23:44.121Z,15.53
2023-03-07T17:26:26.496Z,12.13
2023-03-07T17:28:54.267Z,10.97
2023-03-07T17:31:21.569Z,12.73
2023-03-07T17:33:49.951Z,13.60
2023-03-07T17:36:17.686Z,12.53
2023-03-07T17:38:45.098Z,11.20
2023-03-07T17:41:15.526Z,9.67
2023-03-07T17:43:42.892Z,11.90
2023-03-07T17:46:11.502Z,9.20
2023-03-07T17:48:39.220Z,11.50
2023-03-07T17:51:10.583Z,9.07
2023-03-07T17:53:39.119Z,12.17
2023-03-07T17:56:11.528Z,9.40
2023-03-07T17:58:39.265Z,9.17
2023-03-07T18:01:08.533Z,9.37
2023-03-07T18:03:36.399Z,12.63
2023-03-07T18:06:04.577Z,9.63
2023-03-07T18:08:33.032Z,11.17
2023-03-07T18:11:11.130Z,11.27
2023-03-07T18:13:38.905Z,8.50
2023-03-07T18:16:07.306Z,9.30
2023-03-07T18:18:37.242Z,8.27
2023-03-07T18:21:11.728Z,10.63
2023-03-07T18:23:39.865Z,10.63
2023-03-07T18:26:14.025Z,12.97
2023-03-07T18:28:43.274Z,11.27
2023-03-07T18:31:14.537Z,10.53
2023-03-07T18:33:42.404Z,10.20
2023-03-07T18:36:13.565Z,11.90
2023-03-07T18:38:41.196Z,11.60
2023-03-07T18:41:16.476Z,10.20
2023-03-07T18:43:43.867Z,10.23
2023-03-07T18:46:14.632Z,11.37
2023-03-07T18:48:42.234Z,9.37
2023-03-07T18:51:11.588Z,10.10
2023-03-07T18:53:39.344Z,8.50
2023-03-07T18:56:09.123Z,9.90
2023-03-07T18:58:36.628Z,12.10
2023-03-07T19:01:17.387Z,11.80
2023-03-07T19:03:45.666Z,11.40
2023-03-07T19:06:15.055Z,10.83
2023-03-07T19:08:43.125Z,11.07
2023-03-07T19:11:12.326Z,11.17
2023-03-07T19:13:40.342Z,10.97
2023-03-07T19:16:13.365Z,10.93
2023-03-07T19:18:41.231Z,10.97
2023-03-07T19:21:13.869Z,11.07
2023-03-07T19:23:42.051Z,11.17
2023-03-07T19:26:12.506Z,11.70
2023-03-07T19:28:40.972Z,12.23
2023-03-07T19:31:09.488Z,12.53
2023-03-07T19:33:38.028Z,11.27
2023-03-07T19:36:07.621Z,10.77
2023-03-07T19:38:36.157Z,11.17
2023-03-07T19:41:05.408Z,9.53
2023-03-07T19:43:33.254Z,8.97
2023-03-07T19:46:01.925Z,8.27
2023-03-07T19:48:30.108Z,7.50
2023-03-07T19:50:57.391Z,6.87
2023-03-07T19:53:24.812Z,7.20
2023-03-07T19:55:52.158Z,7.77
2023-03-07T19:58:19.438Z,7.47
2023-03-07T20:00:47.238Z,7.40
2023-03-07T20:03:19.772Z,7.23
2023-03-07T20:05:48.969Z,6.97
2023-03-07T20:08:16.411Z,6.87
2023-03-07T20:10:44.892Z,7.53
2023-03-07T20:13:14.256Z,7.47
2023-03-07T20:15:43.011Z,8.23
2023-03-07T20:18:11.282Z,7.40
2023-03-07T20:20:38.672Z,6.80
2023-03-07T20:23:05.997Z,7.73
2023-03-07T20:25:32.929Z,7.17
2023-03-07T20:27:59.749Z,6.73
2023-03-07T20:30:27.033Z,7.80
2023-03-07T20:32:54.496Z,7.50
2023-03-07T20:35:21.880Z,7.17
2023-03-07T20:37:49.475Z,7.20
2023-03-07T20:40:17.797Z,7.10
2023-03-07T20:42:45.273Z,7.73
2023-03-07T20:45:13.054Z,7.43
2023-03-07T20:47:40.846Z,8.13
2023-03-07T20:50:08.325Z,7.83
2023-03-07T20:52:36.485Z,7.30
2023-03-07T20:55:05.210Z,7.80
2023-03-07T20:57:32.563Z,7.67
2023-03-07T21:00:00.530Z,7.33
2023-03-07T21:02:27.628Z,7.57
2023-03-07T21:04:54.908Z,7.23
2023-03-07T21:07:22.184Z,7.53
2023-03-07T21:09:51.075Z,7.80
2023-03-07T21:12:18.287Z,8.53
2023-03-07T21:14:45.306Z,7.77
2023-03-07T21:17:13.320Z,8.27
2023-03-07T21:19:40.312Z,8.40
2023-03-07T21:22:07.690Z,7.60
2023-03-07T21:24:34.584Z,7.00
2023-03-07T21:27:01.870Z,7.87
2023-03-07T21:29:28.891Z,8.20
2023-03-07T21:31:56.213Z,7.53
2023-03-07T21:34:23.789Z,6.73
2023-03-07T21:36:56.062Z,6.93
2023-03-07T21:39:24.523Z,7.17
2023-03-07T21:41:51.992Z,7.27
2023-03-07T21:44:19.473Z,6.87
2023-03-07T21:46:47.374Z,6.87
2023-03-07T21:49:14.838Z,7.10
2023-03-07T21:51:42.625Z,6.97
2023-03-07T21:54:10.140Z,7.00
2023-03-07T21:56:37.597Z,7.63
2023-03-07T21:59:04.927Z,6.93
2023-03-07T22:01:32.427Z,7.97
2023-03-07T22:04:00.382Z,7.20
2023-03-07T22:06:28.603Z,7.27
2023-03-07T22:08:55.898Z,7.10
2023-03-07T22:11:23.578Z,7.37
2023-03-07T22:13:51.274Z,6.63
2023-03-07T22:16:20.951Z,7.97
2023-03-07T22:18:56.067Z,8.40
2023-03-07T22:21:27.912Z,8.53
2023-03-07T22:23:58.282Z,9.47
2023-03-07T22:26:26.119Z,9.80
2023-03-07T22:28:54.166Z,9.97
2023-03-07T22:31:21.901Z,10.57
2023-03-07T22:33:49.428Z,9.53
2023-03-07T22:36:16.738Z,9.90
2023-03-07T22:38:44.377Z,9.80
2023-03-07T22:41:15.019Z,8.80
2023-03-07T22:43:42.431Z,9.20
2023-03-07T22:46:10.195Z,10.00
2023-03-07T22:48:37.529Z,9.00
2023-03-07T22:51:04.627Z,9.03
2023-03-07T22:53:32.957Z,8.70
2023-03-07T22:56:00.538Z,9.07
2023-03-07T22:58:29.262Z,8.43
2023-03-07T23:00:56.623Z,7.80
2023-03-07T23:03:23.810Z,7.57
2023-03-07T23:05:51.065Z,8.63
2023-03-07T23:08:18.094Z,7.23
2023-03-07T23:10:45.120Z,7.63
2023-03-07T23:13:12.325Z,7.67
2023-03-07T23:15:41.538Z,7.47
2023-03-07T23:18:09.360Z,8.57
2023-03-07T23:20:38.962Z,9.40
2023-03-07T23:23:06.180Z,8.87
2023-03-07T23:25:33.319Z,9.27
2023-03-07T23:28:00.585Z,7.30
2023-03-07T23:30:27.465Z,7.97
2023-03-07T23:32:55.307Z,6.73
2023-03-07T23:35:22.185Z,5.77
2023-03-07T23:37:49.103Z,5.30
2023-03-07T23:40:16.012Z,5.43
2023-03-07T23:42:42.892Z,5.60
2023-03-07T23:45:10.061Z,5.80
2023-03-07T23:47:37.006Z,5.87
2023-03-07T23:50:04.211Z,5.57
2023-03-07T23:52:31.057Z,8.50
2023-03-07T23:54:57.870Z,7.00
2023-03-07T23:57:24.835Z,6.70
2023-03-07T23:59:52.210Z,6.40
